Flight Track Log - Related Links

Times and Time Zones

All times are in EDT time to prevent confusion due to time zone crossing. See the N329JB flight status page for this flight to view local times or setup timezone preferences in your user account.

Time Position Orientation Groundspeed Altitude Reporting Facility
EDT Latitude Longitude Course Direction KTS MPH feet Rate Location/Type
Sun 08:53:14 AM 41.0833 -73.7333 237° Southwest 149 171 1,800  Level New York TRACON
Sun 08:54:14 AM 41.1000 -73.8000 288° West 209 241 2,900 1,105 Climbing New York TRACON
Sun 08:55:00 AM 40.8869 -74.0430 237° Southwest  Level FlightAware Approximate
Sun 08:55:08 AM 41.0833 -73.8667 252° West 252 290 3,900  Level New York TRACON
Sun 08:56:00 AM 40.8273 -74.1611 234° Southwest  Level FlightAware Approximate
Sun 08:56:08 AM 41.0500 -73.9667 246° West 294 338 7,500  Level New York TRACON
Sun 08:57:00 AM 40.7646 -74.2761 234° Southwest  Level FlightAware Approximate
Sun 08:57:02 AM 41.0000 -74.0333 225° Southwest 295 339 10,500  Level New York TRACON
Sun 08:58:00 AM 40.7106 -74.3955 237° Southwest  Level FlightAware Approximate
Sun 08:58:02 AM 40.9333 -74.1333 229° Southwest 341 392 12,200  Level New York TRACON
Sun 08:59:02 AM 40.8833 -74.2333 237° Southwest 364 419 14,900 2,526 Climbing New York TRACON
Sun 08:59:56 AM 40.8167 -74.3333 229° Southwest 386 444 17,000 1,105 Climbing New York TRACON
Sun 09:00:56 AM 40.7500 -74.4500 233° Southwest 413 475 17,000  Level New York TRACON
Sun 09:02:31 AM 40.6383 -74.6272 230° Southwest 414 476 17,000 271 Level New York Center
Sun 09:03:31 AM 40.5722 -74.7328 231° Southwest 414 476 17,700 1,650 Climbing New York Center
Sun 09:04:31 AM 40.5017 -74.8433 230° Southwest 414 476 20,300 2,168 Climbing New York Center
Sun 09:05:30 AM 40.4333 -74.9564 232° Southwest 414 476 22,000 857 Climbing New York Center
Sun 09:06:30 AM 40.3542 -75.0689 227° Southwest 414 476 22,000  Level New York Center
Sun 09:07:29 AM 40.2750 -75.1808 227° Southwest 425 489 22,000 750 Level New York Center
Sun 09:08:30 AM 40.1914 -75.2950 226° Southwest 430 495 23,500 1,488 Climbing New York Center
Sun 09:09:30 AM 40.1078 -75.4117 227° Southwest 430 495 25,000 908 Climbing New York Center
Sun 09:10:29 AM 40.0194 -75.5333 227° Southwest 446 513 25,300 1,180 Climbing New York Center
Sun 09:11:32 AM 39.9286 -75.6625 228° Southwest 473 544 27,400 2,083 Climbing New York Center
Sun 09:12:30 AM 39.8664 -75.8069 241° Southwest 473 544 29,500 2,085 Climbing New York Center
Sun 09:13:30 AM 39.8619 -75.9581 268° West 422 486 31,500 1,934 Climbing New York Center
Sun 09:14:31 AM 39.8203 -76.0983 249° West 422 486 33,400 1,333 Climbing New York Center
Sun 09:16:03 AM 39.7200 -76.2903 236° Southwest 418 481 34,900 960 Climbing Washington Center
Sun 09:17:01 AM 39.6525 -76.4136 235° Southwest 423 487 35,800 915 Climbing Washington Center
Sun 09:18:01 AM 39.5764 -76.5500 234° Southwest 431 496 36,700 885 Climbing Washington Center
Sun 09:19:03 AM 39.4944 -76.6592 226° Southwest 431 496 37,600 650 Climbing Washington Center
Sun 09:20:01 AM 39.4039 -76.7519 218° Southwest 419 482 38,000 203 Climbing Washington Center
Sun 09:21:01 AM 39.3111 -76.8469 218° Southwest 424 488 38,000  Level Washington Center
Sun 09:22:02 AM 39.2164 -76.9417 218° Southwest 435 501 38,000  Level Washington Center
Sun 09:23:02 AM 39.1236 -77.0417 220° Southwest 435 501 38,000  Level Washington Center
Sun 09:24:03 AM 39.0286 -77.1386 218° Southwest 440 506 38,000  Level Washington Center
Sun 09:25:01 AM 38.9333 -77.2328 218° Southwest 440 506 38,000  Level Washington Center
Sun 09:26:02 AM 38.8403 -77.3294 219° Southwest 440 506 38,000  Level Washington Center
Sun 09:27:02 AM 38.7453 -77.4231 218° Southwest 440 506 38,000  Level Washington Center
Sun 09:28:03 AM 38.6606 -77.5086 218° Southwest 440 506 38,000  Level Washington Center
Sun 09:29:03 AM 38.5672 -77.6044 219° Southwest 440 506 38,000  Level Washington Center
Sun 09:30:01 AM 38.4739 -77.7000 219° Southwest 435 501 38,000  Level Washington Center
Sun 09:31:01 AM 38.3803 -77.7928 218° Southwest 435 501 38,000  Level Washington Center
Sun 09:32:02 AM 38.2869 -77.8853 218° Southwest 429 494 38,000  Level Washington Center
Sun 09:33:02 AM 38.1956 -77.9775 218° Southwest 424 488 38,000  Level Washington Center
Sun 09:34:02 AM 38.1039 -78.0669 218° Southwest 429 494 38,000  Level Washington Center
Sun 09:35:00 AM 38.0017 -78.1664 217° Southwest 429 494 38,000  Level Washington Center
Sun 09:36:01 AM 37.9122 -78.2556 218° Southwest 422 486 38,000  Level Washington Center
Sun 09:37:02 AM 37.8183 -78.3442 217° Southwest 422 486 38,000  Level Washington Center
Sun 09:38:03 AM 37.7375 -78.4200 217° Southwest 429 494 38,000  Level Washington Center
Sun 09:39:03 AM 37.6456 -78.5083 217° Southwest 424 488 38,000  Level Washington Center
Sun 09:40:01 AM 37.5497 -78.5936 215° Southwest 424 488 38,000  Level Washington Center
Sun 09:41:02 AM 37.4578 -78.6817 217° Southwest 424 488 38,000  Level Washington Center
Sun 09:42:01 AM 37.3658 -78.7667 216° Southwest 424 488 38,000  Level Washington Center
Sun 09:43:01 AM 37.2631 -78.8617 216° Southwest 424 488 38,000  Level Washington Center
Sun 09:44:02 AM 37.1731 -78.9464 217° Southwest 424 488 38,000  Level Washington Center
Sun 09:45:02 AM 37.0808 -79.0336 217° Southwest 424 488 38,000  Level Washington Center
Sun 09:46:02 AM 36.9889 -79.1178 216° Southwest 424 488 38,000  Level Washington Center
Sun 09:47:03 AM 36.8922 -79.2044 216° Southwest 424 488 38,000  Level Washington Center
Sun 09:49:09 AM 36.6939 -79.3864 216° Southwest 430 495 38,000  Level Atlanta Center
Sun 09:50:09 AM 36.6008 -79.4694 216° Southwest 425 489 38,000  Level Atlanta Center
Sun 09:51:09 AM 36.5161 -79.5467 216° Southwest 419 482 38,000  Level Atlanta Center
Sun 09:52:09 AM 36.4233 -79.6319 216° Southwest 419 482 38,000  Level Atlanta Center
Sun 09:53:09 AM 36.3306 -79.7169 216° Southwest 419 482 38,000  Level Atlanta Center
Sun 09:54:09 AM 36.2394 -79.7989 216° Southwest 419 482 38,000  Level Atlanta Center
Sun 09:55:09 AM 36.1383 -79.8892 216° Southwest 419 482 38,000  Level Atlanta Center
Sun 09:56:09 AM 36.0472 -79.9683 215° Southwest 419 482 38,000  Level Atlanta Center
Sun 09:57:09 AM 35.9425 -80.0247 204° Southwest 412 474 38,000  Level Atlanta Center
Sun 09:58:09 AM 35.8400 -80.0761 202° Southwest 406 467 38,000  Level Atlanta Center
Sun 09:59:09 AM 35.7475 -80.1214 202° Southwest 401 461 38,000  Level Atlanta Center
Sun 10:00:09 AM 35.6450 -80.1800 205° Southwest 409 471 38,000  Level Atlanta Center
Sun 10:01:09 AM 35.5300 -80.2364 202° Southwest 409 471 38,000  Level Atlanta Center
Sun 10:02:09 AM 35.4272 -80.2897 203° Southwest 409 471 38,000  Level Atlanta Center
Sun 10:03:09 AM 35.3244 -80.3400 202° Southwest 403 464 38,000  Level Atlanta Center
Sun 10:04:09 AM 35.2197 -80.3931 202° Southwest 403 464 38,000  Level Atlanta Center
Sun 10:06:38 AM 34.9758 -80.5111 202° Southwest 406 467 38,000  Level Jacksonville Center
Sun 10:07:38 AM 34.8706 -80.5647 203° Southwest 406 467 38,000  Level Jacksonville Center
Sun 10:08:38 AM 34.7733 -80.6128 202° Southwest 401 461 38,000  Level Jacksonville Center
Sun 10:09:38 AM 34.6658 -80.6686 203° Southwest 401 461 38,000  Level Jacksonville Center
Sun 10:10:38 AM 34.5583 -80.7144 199° South 408 470 38,000  Level Jacksonville Center
Sun 10:11:38 AM 34.4444 -80.7725 203° Southwest 408 470 38,000  Level Jacksonville Center
Sun 10:12:38 AM 34.3411 -80.8306 205° Southwest 400 460 38,000  Level Jacksonville Center
Sun 10:13:38 AM 34.2542 -80.8678 199° South 394 453 38,000  Level Jacksonville Center
Sun 10:14:38 AM 34.1506 -80.9178 202° Southwest 389 448 38,000  Level Jacksonville Center
Sun 10:15:38 AM 34.0469 -80.9678 202° Southwest 394 453 38,000  Level Jacksonville Center
Sun 10:16:38 AM 33.9433 -81.0150 201° Southwest 399 459 38,000  Level Jacksonville Center
Sun 10:17:38 AM 33.8294 -81.0700 202° Southwest 405 466 38,000  Level Jacksonville Center
Sun 10:18:38 AM 33.7364 -81.1169 203° Southwest 405 466 38,000  Level Jacksonville Center
Sun 10:19:38 AM 33.6328 -81.1689 203° Southwest 410 472 38,000  Level Jacksonville Center
Sun 10:20:38 AM 33.5289 -81.2206 203° Southwest 410 472 38,000  Level Jacksonville Center
Sun 10:21:38 AM 33.4253 -81.2725 203° Southwest 410 472 38,000  Level Jacksonville Center
Sun 10:22:38 AM 33.3194 -81.3217 201° Southwest 410 472 38,000  Level Jacksonville Center
Sun 10:23:38 AM 33.2261 -81.3656 201° Southwest 410 472 38,000  Level Jacksonville Center
Sun 10:24:38 AM 33.1142 -81.4219 203° Southwest 410 472 38,000  Level Jacksonville Center
Sun 10:25:38 AM 33.0125 -81.4731 203° Southwest 410 472 38,000  Level Jacksonville Center
Sun 10:26:38 AM 32.9086 -81.5217 201° Southwest 410 472 38,000  Level Jacksonville Center
Sun 10:27:38 AM 32.8069 -81.5728 203° Southwest 410 472 38,000  Level Jacksonville Center
Sun 10:28:38 AM 32.7008 -81.6236 202° Southwest 410 472 38,000  Level Jacksonville Center
Sun 10:29:38 AM 32.5908 -81.6769 202° Southwest 398 458 38,000  Level Jacksonville Center
Sun 10:30:38 AM 32.4972 -81.7225 202° Southwest 398 458 38,000  Level Jacksonville Center
Sun 10:31:38 AM 32.3786 -81.7708 199° South 410 472 38,000  Level Jacksonville Center
Sun 10:32:38 AM 32.2661 -81.7969 191° South 416 479 38,000  Level Jacksonville Center
Sun 10:33:38 AM 32.1661 -81.8175 190° South 416 479 38,000  Level Jacksonville Center
Sun 10:34:38 AM 32.0431 -81.8436 190° South 411 473 38,000  Level Jacksonville Center
Sun 10:35:38 AM 31.9411 -81.8667 191° South 411 473 38,000  Level Jacksonville Center
Sun 10:36:38 AM 31.8181 -81.8925 190° South 411 473 38,000  Level Jacksonville Center
Sun 10:37:38 AM 31.7056 -81.9158 190° South 411 473 38,000  Level Jacksonville Center
Sun 10:38:38 AM 31.6056 -81.9389 191° South 406 467 38,000  Level Jacksonville Center
Sun 10:39:38 AM 31.4803 -81.9644 190° South 416 479 38,000  Level Jacksonville Center
Sun 10:40:38 AM 31.3783 -81.9872 191° South 410 472 38,000  Level Jacksonville Center
Sun 10:41:38 AM 31.2533 -82.0178 192° South 410 472 38,000  Level Jacksonville Center
Sun 10:42:38 AM 31.1406 -82.0381 189° South 415 478 38,000  Level Jacksonville Center
Sun 10:43:38 AM 31.0281 -82.0611 190° South 415 478 38,000  Level Jacksonville Center
Sun 10:44:38 AM 30.9153 -82.0861 191° South 410 472 38,000  Level Jacksonville Center
Sun 10:45:38 AM 30.8133 -82.1064 190° South 410 472 38,000  Level Jacksonville Center
Sun 10:46:38 AM 30.7028 -82.1314 191° South 415 478 38,000  Level Jacksonville Center
Sun 10:47:38 AM 30.5922 -82.1542 190° South 410 472 38,000  Level Jacksonville Center
Sun 10:48:38 AM 30.4711 -82.1744 188° South 410 472 38,000  Level Jacksonville Center
Sun 10:49:38 AM 30.3586 -82.1969 190° South 410 472 38,000 -100 Level Jacksonville Center
Sun 10:50:38 AM 30.2481 -82.2194 190° South 410 472 37,800 -600 Descending Jacksonville Center
Sun 10:51:38 AM 30.1356 -82.2442 191° South 411 473 36,800 -1,050 Descending Jacksonville Center
Sun 10:52:38 AM 30.0250 -82.2664 190° South 411 473 35,700 -1,600 Descending Jacksonville Center
Sun 10:53:38 AM 29.9228 -82.2933 193° South 411 473 33,600 -2,150 Descending Jacksonville Center
Sun 10:54:38 AM 29.8081 -82.3156 190° South 411 473 31,400 -2,300 Descending Jacksonville Center
Sun 10:55:38 AM 29.6828 -82.3381 189° South 416 479 29,000 -2,350 Descending Jacksonville Center
Sun 10:56:38 AM 29.5681 -82.3553 187° South 416 479 26,700 -2,150 Descending Jacksonville Center
Sun 10:57:38 AM 29.4553 -82.3439 175° South 411 473 24,700 -1,900 Descending Jacksonville Center
Sun 10:58:38 AM 29.3425 -82.3303 174° South 406 467 22,900 -1,800 Descending Jacksonville Center
Sun 10:59:38 AM 29.2361 -82.3167 174° South 401 461 21,100 -1,800 Descending Jacksonville Center
Sun 11:00:38 AM 29.1317 -82.3056 175° South 396 456 19,300 -1,800 Descending Jacksonville Center
Sun 11:01:38 AM 29.0272 -82.2942 175° South 386 444 17,500 -1,750 Descending Jacksonville Center
Sun 11:02:38 AM 28.9228 -82.2828 175° South 386 444 15,800 -1,486 Descending Jacksonville Center
Sun 11:05:12 AM 28.6833 -82.2500 173° South 343 395 12,200 -1,309 Descending Tampa TRACON
Sun 11:06:18 AM 28.5667 -82.2500 180° South 339 390 11,000 -600 Descending Tampa TRACON
Sun 11:07:12 AM 28.4833 -82.2667 190° South 333 383 11,000  Level Tampa TRACON
Sun 11:08:18 AM 28.3833 -82.3000 196° South 331 381 11,000 -250 Level Tampa TRACON
Sun 11:09:12 AM 28.3167 -82.3167 192° South 284 327 10,500 -1,250 Descending Tampa TRACON
Sun 11:10:18 AM 28.2333 -82.3500 199° South 281 323 8,500 -1,700 Descending Tampa TRACON
Sun 11:11:12 AM 28.1667 -82.3667 192° South 277 319 7,100 -1,737 Descending Tampa TRACON
Sun 11:12:12 AM 28.0833 -82.3833 190° South 277 319 5,200 -1,050 Descending Tampa TRACON
Sun 11:13:12 AM 28.0167 -82.4167 204° Southwest 278 320 5,000 -211 Descending Tampa TRACON
Sun 11:14:06 AM 27.9500 -82.4167 180° South 287 330 4,800 -550 Descending Tampa TRACON
Sun 11:15:01 AM 27.8833 -82.4167 180° South 287 330 4,000 -945 Descending Tampa TRACON
Sun 11:16:13 AM 27.7833 -82.4500 196° South 282 325 2,800 -613 Descending Tampa TRACON
Sun 11:17:18 AM 27.7500 -82.5167 241° Southwest 205 236 2,600 -100 Descending Tampa TRACON
Sun 11:18:13 AM 27.7833 -82.5500 319° Northwest 168 193 2,600 -52 Level Tampa TRACON
Sun 11:19:13 AM 27.8333 -82.5500 360° North 168 193 2,500 -450 Descending Tampa TRACON
Sun 11:20:13 AM 27.8833 -82.5500 360° North 148 170 1,700 -750 Descending Tampa TRACON
Sun 11:21:13 AM 27.9167 -82.5500 360° North 123 142 1,000 -700 Descending Tampa TRACON
Sun 11:22:13 AM 27.9500 -82.5500 360° North 124 143 300 -700 Descending Tampa TRACON
Sun 11:24:00 AM 27.9667 -82.5167 350° North  Level FlightAware Approximate
Sun 11:31:00 AM 27.9755 -82.5332 350° North  Level Estimated

Login

Don't have an account? Register now (free) for customized features, flight alerts, and more!